sensor_id;sensor_type;location;lat;lon;timestamp;temperature;humidity
61455;DHT22;47319;0.000;0.000;2022-09-30T00:00:08;7.60;99.90
61455;DHT22;47319;0.000;0.000;2022-09-30T00:00:43;7.60;99.90
61455;DHT22;47319;0.000;0.000;2022-09-30T00:01:17;7.50;99.90
61455;DHT22;47319;0.000;0.000;2022-09-30T00:01:51;7.50;99.90
61455;DHT22;47319;0.000;0.000;2022-09-30T00:02:59;7.50;99.90
61455;DHT22;47319;0.000;0.000;2022-09-30T00:03:33;7.50;99.90
61455;DHT22;47319;0.000;0.000;2022-09-30T00:04:10;7.50;99.90
61455;DHT22;47319;0.000;0.000;2022-09-30T00:04:46;7.50;99.90
61455;DHT22;47319;0.000;0.000;2022-09-30T00:05:20;7.50;99.90
61455;DHT22;47319;0.000;0.000;2022-09-30T00:05:57;7.50;99.90
61455;DHT22;47319;0.000;0.000;2022-09-30T00:06:32;7.50;99.90
61455;DHT22;47319;0.000;0.000;2022-09-30T00:07:07;7.50;99.90
61455;DHT22;47319;0.000;0.000;2022-09-30T00:07:41;7.50;99.90
61455;DHT22;47319;0.000;0.000;2022-09-30T00:08:15;7.50;99.90
61455;DHT22;47319;0.000;0.000;2022-09-30T00:08:49;7.50;99.90
61455;DHT22;47319;0.000;0.000;2022-09-30T00:09:24;7.50;99.90
61455;DHT22;47319;0.000;0.000;2022-09-30T00:09:58;7.50;99.90
61455;DHT22;47319;0.000;0.000;2022-09-30T00:10:32;7.50;99.90
61455;DHT22;47319;0.000;0.000;2022-09-30T00:11:09;7.50;99.90
61455;DHT22;47319;0.000;0.000;2022-09-30T00:11:44;7.50;99.90
61455;DHT22;47319;0.000;0.000;2022-09-30T00:12:19;7.50;99.90
61455;DHT22;47319;0.000;0.000;2022-09-30T00:12:53;7.40;99.90
61455;DHT22;47319;0.000;0.000;2022-09-30T00:13:27;7.40;99.90
61455;DHT22;47319;0.000;0.000;2022-09-30T00:13:59;7.40;99.90
61455;DHT22;47319;0.000;0.000;2022-09-30T00:14:34;7.50;99.90
61455;DHT22;47319;0.000;0.000;2022-09-30T00:15:09;7.40;99.90
61455;DHT22;47319;0.000;0.000;2022-09-30T00:15:45;7.40;99.90
61455;DHT22;47319;0.000;0.000;2022-09-30T00:16:21;7.40;99.90
61455;DHT22;47319;0.000;0.000;2022-09-30T00:16:55;7.40;99.90
61455;DHT22;47319;0.000;0.000;2022-09-30T00:17:31;7.40;99.90
61455;DHT22;47319;0.000;0.000;2022-09-30T00:18:05;7.40;99.90
61455;DHT22;47319;0.000;0.000;2022-09-30T00:18:40;7.40;99.90
61455;DHT22;47319;0.000;0.000;2022-09-30T00:19:15;7.40;99.90
61455;DHT22;47319;0.000;0.000;2022-09-30T00:19:49;7.40;99.90
61455;DHT22;47319;0.000;0.000;2022-09-30T00:20:23;7.40;99.90
61455;DHT22;47319;0.000;0.000;2022-09-30T00:20:58;7.30;99.90
61455;DHT22;47319;0.000;0.000;2022-09-30T00:21:33;7.40;99.90
61455;DHT22;47319;0.000;0.000;2022-09-30T00:22:07;7.40;99.90
61455;DHT22;47319;0.000;0.000;2022-09-30T00:22:41;7.40;99.90
61455;DHT22;47319;0.000;0.000;2022-09-30T00:23:15;7.40;99.90
61455;DHT22;47319;0.000;0.000;2022-09-30T00:23:50;7.40;99.90
61455;DHT22;47319;0.000;0.000;2022-09-30T00:24:25;7.40;99.90
61455;DHT22;47319;0.000;0.000;2022-09-30T00:24:58;7.40;99.90
61455;DHT22;47319;0.000;0.000;2022-09-30T00:25:33;7.40;99.90
61455;DHT22;47319;0.000;0.000;2022-09-30T00:26:10;7.40;99.90
61455;DHT22;47319;0.000;0.000;2022-09-30T00:26:45;7.30;99.90
61455;DHT22;47319;0.000;0.000;2022-09-30T00:27:20;7.30;99.90
61455;DHT22;47319;0.000;0.000;2022-09-30T00:27:54;7.30;99.90
61455;DHT22;47319;0.000;0.000;2022-09-30T00:28:29;7.40;99.90
61455;DHT22;47319;0.000;0.000;2022-09-30T00:29:04;7.40;99.90
61455;DHT22;47319;0.000;0.000;2022-09-30T00:29:39;7.40;99.90
61455;DHT22;47319;0.000;0.000;2022-09-30T00:30:13;7.40;99.90
61455;DHT22;47319;0.000;0.000;2022-09-30T00:30:47;7.40;99.90
61455;DHT22;47319;0.000;0.000;2022-09-30T00:31:23;7.40;99.90
61455;DHT22;47319;0.000;0.000;2022-09-30T00:31:58;7.40;99.90
61455;DHT22;47319;0.000;0.000;2022-09-30T00:32:33;7.40;99.90
61455;DHT22;47319;0.000;0.000;2022-09-30T00:33:08;7.40;99.90
61455;DHT22;47319;0.000;0.000;2022-09-30T00:33:43;7.50;99.90
61455;DHT22;47319;0.000;0.000;2022-09-30T00:34:17;7.40;99.90
61455;DHT22;47319;0.000;0.000;2022-09-30T00:34:51;7.40;99.90
61455;DHT22;47319;0.000;0.000;2022-09-30T00:35:26;7.50;99.90
61455;DHT22;47319;0.000;0.000;2022-09-30T00:35:59;7.40;99.90
61455;DHT22;47319;0.000;0.000;2022-09-30T00:36:35;7.40;99.90
61455;DHT22;47319;0.000;0.000;2022-09-30T00:37:09;7.40;99.90
61455;DHT22;47319;0.000;0.000;2022-09-30T00:37:44;7.40;99.90
61455;DHT22;47319;0.000;0.000;2022-09-30T00:38:18;7.40;99.90
61455;DHT22;47319;0.000;0.000;2022-09-30T00:38:54;7.40;99.90
61455;DHT22;47319;0.000;0.000;2022-09-30T00:39:29;7.40;99.90
61455;DHT22;47319;0.000;0.000;2022-09-30T00:40:03;7.40;99.90
61455;DHT22;47319;0.000;0.000;2022-09-30T00:40:38;7.40;99.90
61455;DHT22;47319;0.000;0.000;2022-09-30T00:41:12;7.40;99.90
61455;DHT22;47319;0.000;0.000;2022-09-30T00:41:48;7.40;99.90
61455;DHT22;47319;0.000;0.000;2022-09-30T00:42:23;7.40;99.90
61455;DHT22;47319;0.000;0.000;2022-09-30T00:42:57;7.40;99.90
61455;DHT22;47319;0.000;0.000;2022-09-30T00:43:40;7.50;99.90
61455;DHT22;47319;0.000;0.000;2022-09-30T00:45:27;7.50;99.90
61455;DHT22;47319;0.000;0.000;2022-09-30T00:45:59;7.40;99.90
61455;DHT22;47319;0.000;0.000;2022-09-30T00:46:35;7.50;99.90
61455;DHT22;47319;0.000;0.000;2022-09-30T00:47:24;7.50;99.90
61455;DHT22;47319;0.000;0.000;2022-09-30T00:48:06;7.50;99.90
61455;DHT22;47319;0.000;0.000;2022-09-30T00:48:41;7.50;99.90
61455;DHT22;47319;0.000;0.000;2022-09-30T00:49:18;7.50;99.90
61455;DHT22;47319;0.000;0.000;2022-09-30T00:49:57;7.50;99.90
61455;DHT22;47319;0.000;0.000;2022-09-30T00:50:36;7.50;99.90
61455;DHT22;47319;0.000;0.000;2022-09-30T00:51:11;7.60;99.90
61455;DHT22;47319;0.000;0.000;2022-09-30T00:51:49;7.60;99.90
61455;DHT22;47319;0.000;0.000;2022-09-30T00:52:25;7.60;99.90
61455;DHT22;47319;0.000;0.000;2022-09-30T00:53:06;7.60;99.90
61455;DHT22;47319;0.000;0.000;2022-09-30T00:53:47;7.60;99.90
61455;DHT22;47319;0.000;0.000;2022-09-30T00:54:27;7.70;99.90
61455;DHT22;47319;0.000;0.000;2022-09-30T00:55:01;7.70;99.90
61455;DHT22;47319;0.000;0.000;2022-09-30T00:55:44;7.70;99.90
61455;DHT22;47319;0.000;0.000;2022-09-30T00:56:21;7.70;99.90
61455;DHT22;47319;0.000;0.000;2022-09-30T00:56:59;7.60;99.90
61455;DHT22;47319;0.000;0.000;2022-09-30T00:57:35;7.60;99.90
61455;DHT22;47319;0.000;0.000;2022-09-30T00:58:12;7.60;99.90
61455;DHT22;47319;0.000;0.000;2022-09-30T00:58:52;7.60;99.90
61455;DHT22;47319;0.000;0.000;2022-09-30T00:59:29;7.60;99.90
61455;DHT22;47319;0.000;0.000;2022-09-30T01:00:06;7.60;99.90
61455;DHT22;47319;0.000;0.000;2022-09-30T01:00:41;7.60;99.90
61455;DHT22;47319;0.000;0.000;2022-09-30T01:01:15;7.60;99.90
61455;DHT22;47319;0.000;0.000;2022-09-30T01:01:50;7.70;99.90
61455;DHT22;47319;0.000;0.000;2022-09-30T01:02:25;7.70;99.90
61455;DHT22;47319;0.000;0.000;2022-09-30T01:03:00;7.70;99.90
61455;DHT22;47319;0.000;0.000;2022-09-30T01:03:37;7.70;99.90
61455;DHT22;47319;0.000;0.000;2022-09-30T01:04:14;7.70;99.90
61455;DHT22;47319;0.000;0.000;2022-09-30T01:04:49;7.80;99.90
61455;DHT22;47319;0.000;0.000;2022-09-30T01:05:25;7.80;99.90
61455;DHT22;47319;0.000;0.000;2022-09-30T01:05:59;7.80;99.90
61455;DHT22;47319;0.000;0.000;2022-09-30T01:06:33;7.70;99.90
61455;DHT22;47319;0.000;0.000;2022-09-30T01:07:08;7.80;99.90
61455;DHT22;47319;0.000;0.000;2022-09-30T01:07:43;7.70;99.90
61455;DHT22;47319;0.000;0.000;2022-09-30T01:08:20;7.70;99.90
61455;DHT22;47319;0.000;0.000;2022-09-30T01:08:55;7.60;99.90
61455;DHT22;47319;0.000;0.000;2022-09-30T01:09:31;7.60;99.90
61455;DHT22;47319;0.000;0.000;2022-09-30T01:10:06;7.60;99.90
61455;DHT22;47319;0.000;0.000;2022-09-30T01:10:40;7.60;99.90
61455;DHT22;47319;0.000;0.000;2022-09-30T01:11:15;7.50;99.90
61455;DHT22;47319;0.000;0.000;2022-09-30T01:11:49;7.50;99.90
61455;DHT22;47319;0.000;0.000;2022-09-30T01:12:24;7.60;99.90
61455;DHT22;47319;0.000;0.000;2022-09-30T01:12:59;7.60;99.90
61455;DHT22;47319;0.000;0.000;2022-09-30T01:13:34;7.50;99.90
61455;DHT22;47319;0.000;0.000;2022-09-30T01:14:12;7.60;99.90
61455;DHT22;47319;0.000;0.000;2022-09-30T01:14:50;7.60;99.90
61455;DHT22;47319;0.000;0.000;2022-09-30T01:15:34;7.60;99.90
61455;DHT22;47319;0.000;0.000;2022-09-30T01:16:28;7.60;99.90
61455;DHT22;47319;0.000;0.000;2022-09-30T01:17:05;7.70;99.90
61455;DHT22;47319;0.000;0.000;2022-09-30T01:17:46;7.70;99.90
61455;DHT22;47319;0.000;0.000;2022-09-30T01:18:28;7.70;99.90
61455;DHT22;47319;0.000;0.000;2022-09-30T01:19:16;7.70;99.90
61455;DHT22;47319;0.000;0.000;2022-09-30T01:20:45;7.70;99.90
61455;DHT22;47319;0.000;0.000;2022-09-30T01:22:32;7.80;99.90
61455;DHT22;47319;0.000;0.000;2022-09-30T01:24:15;7.80;99.90
61455;DHT22;47319;0.000;0.000;2022-09-30T01:27:09;7.80;99.90
61455;DHT22;47319;0.000;0.000;2022-09-30T01:28:12;7.80;99.90
61455;DHT22;47319;0.000;0.000;2022-09-30T01:30:08;7.90;99.90
61455;DHT22;47319;0.000;0.000;2022-09-30T01:30:57;7.90;99.90
61455;DHT22;47319;0.000;0.000;2022-09-30T01:31:44;7.90;99.90
61455;DHT22;47319;0.000;0.000;2022-09-30T01:32:33;7.90;99.90
61455;DHT22;47319;0.000;0.000;2022-09-30T01:33:20;7.90;99.90
61455;DHT22;47319;0.000;0.000;2022-09-30T01:34:03;7.90;99.90
61455;DHT22;47319;0.000;0.000;2022-09-30T01:34:49;8.00;99.90
61455;DHT22;47319;0.000;0.000;2022-09-30T01:35:30;7.90;99.90
61455;DHT22;47319;0.000;0.000;2022-09-30T01:36:23;7.90;99.90
61455;DHT22;47319;0.000;0.000;2022-09-30T01:37:06;7.90;99.90
61455;DHT22;47319;0.000;0.000;2022-09-30T01:37:49;7.90;99.90
61455;DHT22;47319;0.000;0.000;2022-09-30T01:38:28;8.00;99.90
61455;DHT22;47319;0.000;0.000;2022-09-30T01:39:06;8.00;99.90
61455;DHT22;47319;0.000;0.000;2022-09-30T01:39:50;8.00;99.90
61455;DHT22;47319;0.000;0.000;2022-09-30T01:40:31;8.00;99.90
61455;DHT22;47319;0.000;0.000;2022-09-30T01:41:18;8.00;99.90
61455;DHT22;47319;0.000;0.000;2022-09-30T01:41:58;8.00;99.90
61455;DHT22;47319;0.000;0.000;2022-09-30T01:42:40;8.00;99.90
61455;DHT22;47319;0.000;0.000;2022-09-30T01:43:26;8.00;99.90
61455;DHT22;47319;0.000;0.000;2022-09-30T01:44:03;8.00;99.90
61455;DHT22;47319;0.000;0.000;2022-09-30T01:44:48;7.90;99.90
61455;DHT22;47319;0.000;0.000;2022-09-30T01:45:30;7.90;99.90
61455;DHT22;47319;0.000;0.000;2022-09-30T01:46:16;7.90;99.90
61455;DHT22;47319;0.000;0.000;2022-09-30T01:46:55;7.90;99.90
61455;DHT22;47319;0.000;0.000;2022-09-30T01:47:33;8.00;99.90
61455;DHT22;47319;0.000;0.000;2022-09-30T01:48:15;8.00;99.90
61455;DHT22;47319;0.000;0.000;2022-09-30T01:48:58;8.00;99.90
61455;DHT22;47319;0.000;0.000;2022-09-30T01:49:41;8.00;99.90
61455;DHT22;47319;0.000;0.000;2022-09-30T01:50:19;8.00;99.90
61455;DHT22;47319;0.000;0.000;2022-09-30T01:50:57;8.00;99.90
61455;DHT22;47319;0.000;0.000;2022-09-30T01:51:37;8.00;99.90
61455;DHT22;47319;0.000;0.000;2022-09-30T01:52:15;8.00;99.90
61455;DHT22;47319;0.000;0.000;2022-09-30T01:52:55;8.00;99.90
61455;DHT22;47319;0.000;0.000;2022-09-30T01:53:38;8.00;99.90
61455;DHT22;47319;0.000;0.000;2022-09-30T01:54:17;8.00;99.90
61455;DHT22;47319;0.000;0.000;2022-09-30T01:54:59;8.00;99.90
61455;DHT22;47319;0.000;0.000;2022-09-30T01:55:38;8.00;99.90
61455;DHT22;47319;0.000;0.000;2022-09-30T01:56:18;8.10;99.90
61455;DHT22;47319;0.000;0.000;2022-09-30T01:56:59;8.10;99.90
61455;DHT22;47319;0.000;0.000;2022-09-30T01:57:40;8.10;99.90
61455;DHT22;47319;0.000;0.000;2022-09-30T01:58:21;8.10;99.90
61455;DHT22;47319;0.000;0.000;2022-09-30T01:59:00;8.10;99.90
61455;DHT22;47319;0.000;0.000;2022-09-30T01:59:40;8.10;99.90
61455;DHT22;47319;0.000;0.000;2022-09-30T02:00:16;8.10;99.90
61455;DHT22;47319;0.000;0.000;2022-09-30T02:00:53;8.10;99.90
61455;DHT22;47319;0.000;0.000;2022-09-30T02:01:35;8.10;99.90
61455;DHT22;47319;0.000;0.000;2022-09-30T02:02:13;8.10;99.90
61455;DHT22;47319;0.000;0.000;2022-09-30T02:02:52;8.20;99.90
61455;DHT22;47319;0.000;0.000;2022-09-30T02:03:29;8.10;99.90
61455;DHT22;47319;0.000;0.000;2022-09-30T02:04:09;8.10;99.90
61455;DHT22;47319;0.000;0.000;2022-09-30T02:04:49;8.20;99.90
61455;DHT22;47319;0.000;0.000;2022-09-30T02:05:29;8.10;99.90
61455;DHT22;47319;0.000;0.000;2022-09-30T02:06:07;8.10;99.90
61455;DHT22;47319;0.000;0.000;2022-09-30T02:06:45;8.10;99.90
61455;DHT22;47319;0.000;0.000;2022-09-30T02:07:24;8.20;99.90
61455;DHT22;47319;0.000;0.000;2022-09-30T02:08:02;8.20;99.90
61455;DHT22;47319;0.000;0.000;2022-09-30T02:08:40;8.10;99.90
61455;DHT22;47319;0.000;0.000;2022-09-30T02:09:20;8.20;99.90
61455;DHT22;47319;0.000;0.000;2022-09-30T02:09:59;8.10;99.90
61455;DHT22;47319;0.000;0.000;2022-09-30T02:10:38;8.20;99.90
61455;DHT22;47319;0.000;0.000;2022-09-30T02:11:17;8.20;99.90
61455;DHT22;47319;0.000;0.000;2022-09-30T02:11:53;8.20;99.90
61455;DHT22;47319;0.000;0.000;2022-09-30T02:12:32;8.20;99.90
61455;DHT22;47319;0.000;0.000;2022-09-30T02:13:13;8.20;99.90
61455;DHT22;47319;0.000;0.000;2022-09-30T02:13:50;8.10;99.90
61455;DHT22;47319;0.000;0.000;2022-09-30T02:14:30;8.20;99.90
61455;DHT22;47319;0.000;0.000;2022-09-30T02:15:08;8.20;99.90
61455;DHT22;47319;0.000;0.000;2022-09-30T02:15:47;8.20;99.90
61455;DHT22;47319;0.000;0.000;2022-09-30T02:16:28;8.10;99.90
61455;DHT22;47319;0.000;0.000;2022-09-30T02:17:04;8.20;99.90
61455;DHT22;47319;0.000;0.000;2022-09-30T02:17:44;8.10;99.90
61455;DHT22;47319;0.000;0.000;2022-09-30T02:18:23;8.20;99.90
61455;DHT22;47319;0.000;0.000;2022-09-30T02:19:03;8.20;99.90
61455;DHT22;47319;0.000;0.000;2022-09-30T02:19:45;8.10;99.90
61455;DHT22;47319;0.000;0.000;2022-09-30T02:20:22;8.10;99.90
61455;DHT22;47319;0.000;0.000;2022-09-30T02:21:00;8.10;99.90
61455;DHT22;47319;0.000;0.000;2022-09-30T02:21:38;8.20;99.90
61455;DHT22;47319;0.000;0.000;2022-09-30T02:22:17;8.10;99.90
61455;DHT22;47319;0.000;0.000;2022-09-30T02:22:57;8.20;99.90
61455;DHT22;47319;0.000;0.000;2022-09-30T02:23:35;8.20;99.90
61455;DHT22;47319;0.000;0.000;2022-09-30T02:24:15;8.10;99.90
61455;DHT22;47319;0.000;0.000;2022-09-30T02:24:53;8.10;99.90
61455;DHT22;47319;0.000;0.000;2022-09-30T02:25:35;8.20;99.90
61455;DHT22;47319;0.000;0.000;2022-09-30T02:26:13;8.10;99.90
61455;DHT22;47319;0.000;0.000;2022-09-30T02:26:52;8.10;99.90
61455;DHT22;47319;0.000;0.000;2022-09-30T02:27:28;8.10;99.90
61455;DHT22;47319;0.000;0.000;2022-09-30T02:28:09;8.10;99.90
61455;DHT22;47319;0.000;0.000;2022-09-30T02:28:47;8.10;99.90
61455;DHT22;47319;0.000;0.000;2022-09-30T02:29:27;8.10;99.90
61455;DHT22;47319;0.000;0.000;2022-09-30T02:30:01;8.10;99.90
61455;DHT22;47319;0.000;0.000;2022-09-30T02:30:38;8.10;99.90
61455;DHT22;47319;0.000;0.000;2022-09-30T02:31:17;8.00;99.90
61455;DHT22;47319;0.000;0.000;2022-09-30T02:31:58;8.00;99.90
61455;DHT22;47319;0.000;0.000;2022-09-30T02:32:34;8.00;99.90
61455;DHT22;47319;0.000;0.000;2022-09-30T02:33:14;8.00;99.90
61455;DHT22;47319;0.000;0.000;2022-09-30T02:33:53;7.90;99.90
61455;DHT22;47319;0.000;0.000;2022-09-30T02:34:31;8.00;99.90
61455;DHT22;47319;0.000;0.000;2022-09-30T02:35:10;8.00;99.90
61455;DHT22;47319;0.000;0.000;2022-09-30T02:35:50;8.00;99.90
61455;DHT22;47319;0.000;0.000;2022-09-30T02:36:28;8.00;99.90
61455;DHT22;47319;0.000;0.000;2022-09-30T02:37:08;8.00;99.90
61455;DHT22;47319;0.000;0.000;2022-09-30T02:37:45;8.00;99.90
61455;DHT22;47319;0.000;0.000;2022-09-30T02:38:27;8.00;99.90
61455;DHT22;47319;0.000;0.000;2022-09-30T02:39:02;8.10;99.90
61455;DHT22;47319;0.000;0.000;2022-09-30T02:39:41;8.10;99.90
61455;DHT22;47319;0.000;0.000;2022-09-30T02:40:22;8.00;99.90
61455;DHT22;47319;0.000;0.000;2022-09-30T02:41:01;8.10;99.90
61455;DHT22;47319;0.000;0.000;2022-09-30T02:41:40;8.10;99.90
61455;DHT22;47319;0.000;0.000;2022-09-30T02:42:19;8.10;99.90
61455;DHT22;47319;0.000;0.000;2022-09-30T02:42:55;8.10;99.90
61455;DHT22;47319;0.000;0.000;2022-09-30T02:43:30;8.10;99.90
61455;DHT22;47319;0.000;0.000;2022-09-30T02:44:04;8.20;99.90
61455;DHT22;47319;0.000;0.000;2022-09-30T02:44:39;8.10;99.90
61455;DHT22;47319;0.000;0.000;2022-09-30T02:45:18;8.10;99.90
61455;DHT22;47319;0.000;0.000;2022-09-30T02:46:03;8.10;99.90
61455;DHT22;47319;0.000;0.000;2022-09-30T02:46:43;8.10;99.90
61455;DHT22;47319;0.000;0.000;2022-09-30T02:47:25;8.10;99.90
61455;DHT22;47319;0.000;0.000;2022-09-30T02:48:06;8.10;99.90
61455;DHT22;47319;0.000;0.000;2022-09-30T02:48:47;8.10;99.90
61455;DHT22;47319;0.000;0.000;2022-09-30T02:49:29;8.10;99.90
61455;DHT22;47319;0.000;0.000;2022-09-30T02:50:09;8.10;99.90
61455;DHT22;47319;0.000;0.000;2022-09-30T02:50:50;8.10;99.90
61455;DHT22;47319;0.000;0.000;2022-09-30T02:51:30;8.10;99.90
61455;DHT22;47319;0.000;0.000;2022-09-30T02:52:14;8.00;99.90
61455;DHT22;47319;0.000;0.000;2022-09-30T02:53:01;8.10;99.90
61455;DHT22;47319;0.000;0.000;2022-09-30T02:53:41;8.10;99.90
61455;DHT22;47319;0.000;0.000;2022-09-30T02:54:21;8.10;99.90
61455;DHT22;47319;0.000;0.000;2022-09-30T02:55:06;8.10;99.90
61455;DHT22;47319;0.000;0.000;2022-09-30T02:55:57;8.10;99.90
61455;DHT22;47319;0.000;0.000;2022-09-30T02:56:40;8.10;99.90
61455;DHT22;47319;0.000;0.000;2022-09-30T02:57:22;8.10;99.90
61455;DHT22;47319;0.000;0.000;2022-09-30T02:58:03;8.10;99.90
61455;DHT22;47319;0.000;0.000;2022-09-30T02:58:42;8.00;99.90
61455;DHT22;47319;0.000;0.000;2022-09-30T02:59:18;8.10;99.90
61455;DHT22;47319;0.000;0.000;2022-09-30T02:59:53;8.10;99.90
61455;DHT22;47319;0.000;0.000;2022-09-30T03:00:28;8.00;99.90
61455;DHT22;47319;0.000;0.000;2022-09-30T03:01:02;8.00;99.90
61455;DHT22;47319;0.000;0.000;2022-09-30T03:01:36;8.00;99.90
61455;DHT22;47319;0.000;0.000;2022-09-30T03:02:11;8.10;99.90
61455;DHT22;47319;0.000;0.000;2022-09-30T03:02:45;8.00;99.90
61455;DHT22;47319;0.000;0.000;2022-09-30T03:03:22;8.10;99.90
61455;DHT22;47319;0.000;0.000;2022-09-30T03:04:01;8.10;99.90
61455;DHT22;47319;0.000;0.000;2022-09-30T03:04:38;8.10;99.90
61455;DHT22;47319;0.000;0.000;2022-09-30T03:05:12;8.10;99.90
61455;DHT22;47319;0.000;0.000;2022-09-30T03:05:48;8.10;99.90
61455;DHT22;47319;0.000;0.000;2022-09-30T03:06:23;8.10;99.90
61455;DHT22;47319;0.000;0.000;2022-09-30T03:06:58;8.10;99.90
61455;DHT22;47319;0.000;0.000;2022-09-30T03:07:35;8.10;99.90
61455;DHT22;47319;0.000;0.000;2022-09-30T03:08:10;8.10;99.90
61455;DHT22;47319;0.000;0.000;2022-09-30T03:08:44;8.10;99.90
61455;DHT22;47319;0.000;0.000;2022-09-30T03:09:23;8.10;99.90
61455;DHT22;47319;0.000;0.000;2022-09-30T03:09:58;8.10;99.90
61455;DHT22;47319;0.000;0.000;2022-09-30T03:10:32;8.20;99.90
61455;DHT22;47319;0.000;0.000;2022-09-30T03:11:09;8.20;99.90
61455;DHT22;47319;0.000;0.000;2022-09-30T03:11:45;8.20;99.90
61455;DHT22;47319;0.000;0.000;2022-09-30T03:12:29;8.20;99.90
61455;DHT22;47319;0.000;0.000;2022-09-30T03:13:11;8.30;99.90
61455;DHT22;47319;0.000;0.000;2022-09-30T03:14:22;8.20;99.90
61455;DHT22;47319;0.000;0.000;2022-09-30T03:15:16;8.20;99.90
61455;DHT22;47319;0.000;0.000;2022-09-30T03:16:02;8.20;99.90
61455;DHT22;47319;0.000;0.000;2022-09-30T03:16:52;8.20;99.90
61455;DHT22;47319;0.000;0.000;2022-09-30T03:17:40;8.20;99.90
61455;DHT22;47319;0.000;0.000;2022-09-30T03:18:32;8.30;99.90
61455;DHT22;47319;0.000;0.000;2022-09-30T03:19:25;8.20;99.90
61455;DHT22;47319;0.000;0.000;2022-09-30T03:20:16;8.30;99.90
61455;DHT22;47319;0.000;0.000;2022-09-30T03:21:05;8.20;99.90
61455;DHT22;47319;0.000;0.000;2022-09-30T03:21:54;8.30;99.90
61455;DHT22;47319;0.000;0.000;2022-09-30T03:22:48;8.20;99.90
61455;DHT22;47319;0.000;0.000;2022-09-30T03:23:34;8.20;99.90
61455;DHT22;47319;0.000;0.000;2022-09-30T03:24:43;8.20;99.90
61455;DHT22;47319;0.000;0.000;2022-09-30T03:25:31;8.20;99.90
61455;DHT22;47319;0.000;0.000;2022-09-30T03:26:25;8.20;99.90
61455;DHT22;47319;0.000;0.000;2022-09-30T03:27:08;8.20;99.90
61455;DHT22;47319;0.000;0.000;2022-09-30T03:27:53;8.20;99.90
61455;DHT22;47319;0.000;0.000;2022-09-30T03:28:34;8.20;99.90
61455;DHT22;47319;0.000;0.000;2022-09-30T03:29:15;8.10;99.90
61455;DHT22;47319;0.000;0.000;2022-09-30T03:29:56;8.10;99.90
61455;DHT22;47319;0.000;0.000;2022-09-30T03:30:41;8.20;99.90
61455;DHT22;47319;0.000;0.000;2022-09-30T03:31:23;8.10;99.90
61455;DHT22;47319;0.000;0.000;2022-09-30T03:32:08;8.10;99.90
61455;DHT22;47319;0.000;0.000;2022-09-30T03:33:05;8.10;99.90
61455;DHT22;47319;0.000;0.000;2022-09-30T03:33:48;8.10;99.90
61455;DHT22;47319;0.000;0.000;2022-09-30T03:34:30;8.10;99.90
61455;DHT22;47319;0.000;0.000;2022-09-30T03:35:13;8.10;99.90
61455;DHT22;47319;0.000;0.000;2022-09-30T03:35:57;8.10;99.90
61455;DHT22;47319;0.000;0.000;2022-09-30T03:36:37;8.10;99.90
61455;DHT22;47319;0.000;0.000;2022-09-30T03:37:18;8.10;99.90
61455;DHT22;47319;0.000;0.000;2022-09-30T03:38:00;8.10;99.90
61455;DHT22;47319;0.000;0.000;2022-09-30T03:38:44;8.10;99.90
61455;DHT22;47319;0.000;0.000;2022-09-30T03:39:25;8.10;99.90
61455;DHT22;47319;0.000;0.000;2022-09-30T03:40:02;8.10;99.90
61455;DHT22;47319;0.000;0.000;2022-09-30T03:40:42;8.10;99.90
61455;DHT22;47319;0.000;0.000;2022-09-30T03:41:27;8.10;99.90
61455;DHT22;47319;0.000;0.000;2022-09-30T03:42:06;8.10;99.90
61455;DHT22;47319;0.000;0.000;2022-09-30T03:42:44;8.10;99.90
61455;DHT22;47319;0.000;0.000;2022-09-30T03:43:28;8.10;99.90
61455;DHT22;47319;0.000;0.000;2022-09-30T03:44:05;8.10;99.90
61455;DHT22;47319;0.000;0.000;2022-09-30T03:44:44;8.10;99.90
61455;DHT22;47319;0.000;0.000;2022-09-30T03:45:26;8.10;99.90
61455;DHT22;47319;0.000;0.000;2022-09-30T03:46:05;8.10;99.90
61455;DHT22;47319;0.000;0.000;2022-09-30T03:46:45;8.10;99.90
61455;DHT22;47319;0.000;0.000;2022-09-30T03:47:22;8.10;99.90
61455;DHT22;47319;0.000;0.000;2022-09-30T03:48:01;8.10;99.90
61455;DHT22;47319;0.000;0.000;2022-09-30T03:48:38;8.10;99.90
61455;DHT22;47319;0.000;0.000;2022-09-30T03:49:18;8.00;99.90
61455;DHT22;47319;0.000;0.000;2022-09-30T03:49:57;8.00;99.90
61455;DHT22;47319;0.000;0.000;2022-09-30T03:50:35;8.00;99.90
61455;DHT22;47319;0.000;0.000;2022-09-30T03:51:10;8.00;99.90
61455;DHT22;47319;0.000;0.000;2022-09-30T03:51:45;8.00;99.90
61455;DHT22;47319;0.000;0.000;2022-09-30T03:52:20;8.00;99.90
61455;DHT22;47319;0.000;0.000;2022-09-30T03:52:56;8.00;99.90
61455;DHT22;47319;0.000;0.000;2022-09-30T03:53:37;8.00;99.90
61455;DHT22;47319;0.000;0.000;2022-09-30T03:54:12;8.10;99.90
61455;DHT22;47319;0.000;0.000;2022-09-30T03:54:49;8.00;99.90
61455;DHT22;47319;0.000;0.000;2022-09-30T03:55:24;8.00;99.90
61455;DHT22;47319;0.000;0.000;2022-09-30T03:55:59;8.10;99.90
61455;DHT22;47319;0.000;0.000;2022-09-30T03:56:33;8.00;99.90
61455;DHT22;47319;0.000;0.000;2022-09-30T03:57:07;8.10;99.90
61455;DHT22;47319;0.000;0.000;2022-09-30T03:57:41;8.00;99.90
61455;DHT22;47319;0.000;0.000;2022-09-30T03:58:17;8.00;99.90
61455;DHT22;47319;0.000;0.000;2022-09-30T03:58:52;8.00;99.90
61455;DHT22;47319;0.000;0.000;2022-09-30T03:59:29;8.00;99.90
61455;DHT22;47319;0.000;0.000;2022-09-30T04:00:05;8.00;99.90
61455;DHT22;47319;0.000;0.000;2022-09-30T04:00:45;7.90;99.90
61455;DHT22;47319;0.000;0.000;2022-09-30T04:01:20;8.00;99.90
61455;DHT22;47319;0.000;0.000;2022-09-30T04:01:55;7.90;99.90
61455;DHT22;47319;0.000;0.000;2022-09-30T04:02:29;8.00;99.90
61455;DHT22;47319;0.000;0.000;2022-09-30T04:03:03;7.90;99.90
61455;DHT22;47319;0.000;0.000;2022-09-30T04:03:38;7.90;99.90
61455;DHT22;47319;0.000;0.000;2022-09-30T04:04:12;7.90;99.90
61455;DHT22;47319;0.000;0.000;2022-09-30T04:04:46;7.90;99.90
61455;DHT22;47319;0.000;0.000;2022-09-30T04:05:21;7.80;99.90
61455;DHT22;47319;0.000;0.000;2022-09-30T04:05:55;7.80;99.90
61455;DHT22;47319;0.000;0.000;2022-09-30T04:06:29;7.90;99.90
61455;DHT22;47319;0.000;0.000;2022-09-30T04:07:03;7.90;99.90
61455;DHT22;47319;0.000;0.000;2022-09-30T04:07:38;7.90;99.90
61455;DHT22;47319;0.000;0.000;2022-09-30T04:08:12;7.90;99.90
61455;DHT22;47319;0.000;0.000;2022-09-30T04:08:46;7.90;99.90
61455;DHT22;47319;0.000;0.000;2022-09-30T04:09:21;7.90;99.90
61455;DHT22;47319;0.000;0.000;2022-09-30T04:09:55;7.90;99.90
61455;DHT22;47319;0.000;0.000;2022-09-30T04:10:30;7.90;99.90
61455;DHT22;47319;0.000;0.000;2022-09-30T04:11:04;8.00;99.90
61455;DHT22;47319;0.000;0.000;2022-09-30T04:11:38;8.00;99.90
61455;DHT22;47319;0.000;0.000;2022-09-30T04:12:13;7.90;99.90
61455;DHT22;47319;0.000;0.000;2022-09-30T04:12:47;8.00;99.90
61455;DHT22;47319;0.000;0.000;2022-09-30T04:13:21;8.00;99.90
61455;DHT22;47319;0.000;0.000;2022-09-30T04:13:56;8.00;99.90
61455;DHT22;47319;0.000;0.000;2022-09-30T04:14:31;8.00;99.90
61455;DHT22;47319;0.000;0.000;2022-09-30T04:15:07;8.00;99.90
61455;DHT22;47319;0.000;0.000;2022-09-30T04:15:41;8.00;99.90
61455;DHT22;47319;0.000;0.000;2022-09-30T04:16:15;7.80;99.90
61455;DHT22;47319;0.000;0.000;2022-09-30T04:16:50;7.90;99.90
61455;DHT22;47319;0.000;0.000;2022-09-30T04:17:24;7.90;99.90
61455;DHT22;47319;0.000;0.000;2022-09-30T04:17:58;7.90;99.90
61455;DHT22;47319;0.000;0.000;2022-09-30T04:18:34;8.00;99.90
61455;DHT22;47319;0.000;0.000;2022-09-30T04:19:08;7.90;99.90
61455;DHT22;47319;0.000;0.000;2022-09-30T04:19:43;7.90;99.90